Glade Hill, Virginia
Current Conditions -  °F | °C
As of 2:03 AM on Monday 22 Dec 2014 (Local Time) from KROA Reporting Station
Overcast Overcast  
Wind Chill: 33°   Ceiling: 3100
Heat Index: 38°   Visibility: 10mi
Dew Point: 28°   Wind: 7mph
Humidity: 68%   Direction: 120°ESE
Pressure: 30.24"   Gusts: NA
Location:  37.0073°N, 79.7681°W
Report Text: KROA 220703Z 12006KT 10SM OVC031 03/M02 A3024 RMK AO2 T00331022
Loading
Personal Weather Stations






























Interactive Weather Map New forecast layout! Learn more

10-Day Weather Forecast

Advertisements
Track Severe Weather on mobile